sensor_id;sensor_type;location;lat;lon;timestamp;P1;durP1;ratioP1;P2;durP2;ratioP2
28431;SDS011;15664;51.302;7.744;2023-04-24T00:00:13;1.70;;;1.00;;
28431;SDS011;15664;51.302;7.744;2023-04-24T00:02:41;1.77;;;0.93;;
28431;SDS011;15664;51.302;7.744;2023-04-24T00:05:09;1.48;;;0.93;;
28431;SDS011;15664;51.302;7.744;2023-04-24T00:07:35;2.00;;;0.87;;
28431;SDS011;15664;51.302;7.744;2023-04-24T00:10:01;1.60;;;0.83;;
28431;SDS011;15664;51.302;7.744;2023-04-24T00:12:26;1.60;;;1.00;;
28431;SDS011;15664;51.302;7.744;2023-04-24T00:14:52;1.83;;;0.90;;
28431;SDS011;15664;51.302;7.744;2023-04-24T00:17:17;2.47;;;1.07;;
28431;SDS011;15664;51.302;7.744;2023-04-24T00:19:46;1.42;;;1.00;;
28431;SDS011;15664;51.302;7.744;2023-04-24T00:22:12;1.13;;;0.77;;
28431;SDS011;15664;51.302;7.744;2023-04-24T00:24:38;1.63;;;1.10;;
28431;SDS011;15664;51.302;7.744;2023-04-24T00:27:04;1.95;;;0.90;;
28431;SDS011;15664;51.302;7.744;2023-04-24T00:29:29;1.50;;;0.83;;
28431;SDS011;15664;51.302;7.744;2023-04-24T00:31:55;1.13;;;0.77;;
28431;SDS011;15664;51.302;7.744;2023-04-24T00:34:20;1.67;;;1.00;;
28431;SDS011;15664;51.302;7.744;2023-04-24T00:36:46;1.60;;;1.00;;
28431;SDS011;15664;51.302;7.744;2023-04-24T00:39:11;1.93;;;1.03;;
28431;SDS011;15664;51.302;7.744;2023-04-24T00:41:37;1.10;;;0.90;;
28431;SDS011;15664;51.302;7.744;2023-04-24T00:44:02;1.70;;;0.90;;
28431;SDS011;15664;51.302;7.744;2023-04-24T00:46:28;1.03;;;0.83;;
28431;SDS011;15664;51.302;7.744;2023-04-24T00:48:55;2.33;;;0.95;;
28431;SDS011;15664;51.302;7.744;2023-04-24T00:51:21;1.75;;;0.95;;
28431;SDS011;15664;51.302;7.744;2023-04-24T00:53:46;1.67;;;1.17;;
28431;SDS011;15664;51.302;7.744;2023-04-24T00:56:12;3.03;;;1.17;;
28431;SDS011;15664;51.302;7.744;2023-04-24T00:58:38;1.60;;;0.85;;
28431;SDS011;15664;51.302;7.744;2023-04-24T01:01:04;3.53;;;1.17;;
28431;SDS011;15664;51.302;7.744;2023-04-24T01:03:32;2.33;;;0.90;;
28431;SDS011;15664;51.302;7.744;2023-04-24T01:05:58;2.10;;;0.95;;
28431;SDS011;15664;51.302;7.744;2023-04-24T01:08:24;2.30;;;0.98;;
28431;SDS011;15664;51.302;7.744;2023-04-24T01:10:51;1.77;;;1.10;;
28431;SDS011;15664;51.302;7.744;2023-04-24T01:13:18;1.83;;;1.13;;
28431;SDS011;15664;51.302;7.744;2023-04-24T01:15:43;2.38;;;1.10;;
28431;SDS011;15664;51.302;7.744;2023-04-24T01:18:09;2.83;;;1.10;;
28431;SDS011;15664;51.302;7.744;2023-04-24T01:20:34;1.93;;;1.00;;
28431;SDS011;15664;51.302;7.744;2023-04-24T01:22:59;2.38;;;1.10;;
28431;SDS011;15664;51.302;7.744;2023-04-24T01:25:26;2.00;;;1.13;;
28431;SDS011;15664;51.302;7.744;2023-04-24T01:27:52;2.33;;;1.10;;
28431;SDS011;15664;51.302;7.744;2023-04-24T01:30:18;2.67;;;1.20;;
28431;SDS011;15664;51.302;7.744;2023-04-24T01:32:43;4.87;;;1.30;;
28431;SDS011;15664;51.302;7.744;2023-04-24T01:35:09;1.95;;;1.10;;
28431;SDS011;15664;51.302;7.744;2023-04-24T01:37:35;2.80;;;1.20;;
28431;SDS011;15664;51.302;7.744;2023-04-24T01:40:03;2.35;;;1.23;;
28431;SDS011;15664;51.302;7.744;2023-04-24T01:42:29;2.53;;;1.23;;
28431;SDS011;15664;51.302;7.744;2023-04-24T01:44:54;2.22;;;1.40;;
28431;SDS011;15664;51.302;7.744;2023-04-24T01:47:20;2.23;;;1.10;;
28431;SDS011;15664;51.302;7.744;2023-04-24T01:49:45;3.03;;;1.13;;
28431;SDS011;15664;51.302;7.744;2023-04-24T01:52:11;2.72;;;1.05;;
28431;SDS011;15664;51.302;7.744;2023-04-24T01:54:36;2.97;;;1.20;;
28431;SDS011;15664;51.302;7.744;2023-04-24T01:57:02;1.83;;;1.13;;
28431;SDS011;15664;51.302;7.744;2023-04-24T01:59:28;5.68;;;1.40;;
28431;SDS011;15664;51.302;7.744;2023-04-24T02:01:54;2.83;;;1.13;;
28431;SDS011;15664;51.302;7.744;2023-04-24T02:04:20;1.75;;;1.10;;
28431;SDS011;15664;51.302;7.744;2023-04-24T02:06:46;2.08;;;1.15;;
28431;SDS011;15664;51.302;7.744;2023-04-24T02:09:11;1.80;;;1.00;;
28431;SDS011;15664;51.302;7.744;2023-04-24T02:11:36;1.63;;;1.00;;
28431;SDS011;15664;51.302;7.744;2023-04-24T02:14:02;1.83;;;1.27;;
28431;SDS011;15664;51.302;7.744;2023-04-24T02:16:28;1.40;;;1.10;;
28431;SDS011;15664;51.302;7.744;2023-04-24T02:18:58;3.10;;;1.40;;
28431;SDS011;15664;51.302;7.744;2023-04-24T02:21:23;2.22;;;1.20;;
28431;SDS011;15664;51.302;7.744;2023-04-24T02:23:49;3.00;;;1.30;;
28431;SDS011;15664;51.302;7.744;2023-04-24T02:26:14;3.77;;;1.90;;
28431;SDS011;15664;51.302;7.744;2023-04-24T02:28:40;2.40;;;1.15;;
28431;SDS011;15664;51.302;7.744;2023-04-24T02:31:06;3.03;;;1.53;;
28431;SDS011;15664;51.302;7.744;2023-04-24T02:33:31;5.70;;;1.77;;
28431;SDS011;15664;51.302;7.744;2023-04-24T02:35:56;2.97;;;1.87;;
28431;SDS011;15664;51.302;7.744;2023-04-24T02:38:22;2.33;;;1.35;;
28431;SDS011;15664;51.302;7.744;2023-04-24T02:40:48;2.57;;;1.30;;
28431;SDS011;15664;51.302;7.744;2023-04-24T02:43:13;2.60;;;1.23;;
28431;SDS011;15664;51.302;7.744;2023-04-24T02:45:38;2.73;;;1.27;;
28431;SDS011;15664;51.302;7.744;2023-04-24T02:48:04;3.92;;;1.90;;
28431;SDS011;15664;51.302;7.744;2023-04-24T02:50:29;2.53;;;1.40;;
28431;SDS011;15664;51.302;7.744;2023-04-24T02:52:55;3.10;;;1.67;;
28431;SDS011;15664;51.302;7.744;2023-04-24T02:55:20;4.53;;;1.43;;
28431;SDS011;15664;51.302;7.744;2023-04-24T02:57:46;1.88;;;1.20;;
28431;SDS011;15664;51.302;7.744;2023-04-24T03:00:11;3.33;;;1.73;;
28431;SDS011;15664;51.302;7.744;2023-04-24T03:02:37;3.80;;;1.63;;
28431;SDS011;15664;51.302;7.744;2023-04-24T03:05:02;2.95;;;1.27;;
28431;SDS011;15664;51.302;7.744;2023-04-24T03:07:29;3.40;;;1.80;;
28431;SDS011;15664;51.302;7.744;2023-04-24T03:09:55;3.20;;;1.70;;
28431;SDS011;15664;51.302;7.744;2023-04-24T03:12:20;4.50;;;2.00;;
28431;SDS011;15664;51.302;7.744;2023-04-24T03:14:49;4.25;;;1.88;;
28431;SDS011;15664;51.302;7.744;2023-04-24T03:17:15;3.20;;;1.73;;
28431;SDS011;15664;51.302;7.744;2023-04-24T03:19:42;4.30;;;2.20;;
28431;SDS011;15664;51.302;7.744;2023-04-24T03:22:09;6.00;;;1.75;;
28431;SDS011;15664;51.302;7.744;2023-04-24T03:24:37;3.35;;;1.58;;
28431;SDS011;15664;51.302;7.744;2023-04-24T03:27:03;3.65;;;1.85;;
28431;SDS011;15664;51.302;7.744;2023-04-24T03:30:07;5.07;;;2.30;;
28431;SDS011;15664;51.302;7.744;2023-04-24T03:32:43;4.90;;;2.03;;
28431;SDS011;15664;51.302;7.744;2023-04-24T03:35:11;4.50;;;2.00;;
28431;SDS011;15664;51.302;7.744;2023-04-24T03:37:37;4.97;;;2.50;;
28431;SDS011;15664;51.302;7.744;2023-04-24T03:40:22;4.20;;;2.10;;
28431;SDS011;15664;51.302;7.744;2023-04-24T03:42:47;8.10;;;3.30;;
28431;SDS011;15664;51.302;7.744;2023-04-24T03:45:13;8.35;;;3.47;;
28431;SDS011;15664;51.302;7.744;2023-04-24T03:47:42;8.33;;;3.60;;
28431;SDS011;15664;51.302;7.744;2023-04-24T03:50:07;7.97;;;2.97;;
28431;SDS011;15664;51.302;7.744;2023-04-24T03:52:33;7.90;;;3.57;;
28431;SDS011;15664;51.302;7.744;2023-04-24T03:54:59;7.05;;;3.75;;
28431;SDS011;15664;51.302;7.744;2023-04-24T03:57:25;9.18;;;4.00;;
28431;SDS011;15664;51.302;7.744;2023-04-24T04:00:13;12.03;;;4.07;;
28431;SDS011;15664;51.302;7.744;2023-04-24T04:02:47;6.75;;;2.72;;
28431;SDS011;15664;51.302;7.744;2023-04-24T04:05:12;5.47;;;2.67;;
28431;SDS011;15664;51.302;7.744;2023-04-24T04:07:38;7.35;;;3.35;;
28431;SDS011;15664;51.302;7.744;2023-04-24T04:10:03;8.40;;;4.03;;
28431;SDS011;15664;51.302;7.744;2023-04-24T04:12:29;8.57;;;4.00;;
28431;SDS011;15664;51.302;7.744;2023-04-24T04:14:54;9.50;;;3.63;;
28431;SDS011;15664;51.302;7.744;2023-04-24T04:17:20;9.23;;;3.35;;
28431;SDS011;15664;51.302;7.744;2023-04-24T04:19:46;7.67;;;3.10;;
28431;SDS011;15664;51.302;7.744;2023-04-24T04:22:11;6.77;;;3.40;;
28431;SDS011;15664;51.302;7.744;2023-04-24T04:24:41;4.57;;;2.05;;
28431;SDS011;15664;51.302;7.744;2023-04-24T04:27:08;7.38;;;3.05;;
28431;SDS011;15664;51.302;7.744;2023-04-24T04:29:42;8.55;;;2.67;;
28431;SDS011;15664;51.302;7.744;2023-04-24T04:32:09;7.03;;;3.20;;
28431;SDS011;15664;51.302;7.744;2023-04-24T04:34:35;8.45;;;3.17;;
28431;SDS011;15664;51.302;7.744;2023-04-24T04:37:03;11.40;;;4.43;;
28431;SDS011;15664;51.302;7.744;2023-04-24T04:39:43;10.45;;;4.40;;
28431;SDS011;15664;51.302;7.744;2023-04-24T04:42:15;7.33;;;2.97;;
28431;SDS011;15664;51.302;7.744;2023-04-24T04:44:42;10.05;;;3.72;;
28431;SDS011;15664;51.302;7.744;2023-04-24T04:47:13;7.28;;;3.50;;
28431;SDS011;15664;51.302;7.744;2023-04-24T04:49:39;11.40;;;4.03;;
28431;SDS011;15664;51.302;7.744;2023-04-24T04:52:14;9.13;;;3.63;;
28431;SDS011;15664;51.302;7.744;2023-04-24T04:54:39;9.93;;;4.70;;
28431;SDS011;15664;51.302;7.744;2023-04-24T04:57:05;14.90;;;4.37;;
28431;SDS011;15664;51.302;7.744;2023-04-24T04:59:33;9.07;;;3.10;;
28431;SDS011;15664;51.302;7.744;2023-04-24T05:02:04;11.15;;;3.60;;
28431;SDS011;15664;51.302;7.744;2023-04-24T05:04:30;10.73;;;3.77;;
28431;SDS011;15664;51.302;7.744;2023-04-24T05:06:56;9.65;;;3.70;;
28431;SDS011;15664;51.302;7.744;2023-04-24T05:09:22;13.55;;;4.05;;
28431;SDS011;15664;51.302;7.744;2023-04-24T05:11:52;12.27;;;4.78;;
28431;SDS011;15664;51.302;7.744;2023-04-24T05:14:17;9.63;;;3.73;;
28431;SDS011;15664;51.302;7.744;2023-04-24T05:16:44;12.43;;;4.60;;
28431;SDS011;15664;51.302;7.744;2023-04-24T05:19:11;9.57;;;4.00;;
28431;SDS011;15664;51.302;7.744;2023-04-24T05:21:40;9.93;;;4.17;;
28431;SDS011;15664;51.302;7.744;2023-04-24T05:24:06;8.68;;;4.45;;
28431;SDS011;15664;51.302;7.744;2023-04-24T05:26:51;8.35;;;3.55;;
28431;SDS011;15664;51.302;7.744;2023-04-24T05:29:21;7.53;;;3.35;;
28431;SDS011;15664;51.302;7.744;2023-04-24T05:31:47;9.53;;;4.17;;
28431;SDS011;15664;51.302;7.744;2023-04-24T05:34:13;9.43;;;4.07;;
28431;SDS011;15664;51.302;7.744;2023-04-24T05:36:43;7.97;;;3.03;;
28431;SDS011;15664;51.302;7.744;2023-04-24T05:39:09;9.07;;;3.73;;
28431;SDS011;15664;51.302;7.744;2023-04-24T05:41:34;9.60;;;4.07;;
28431;SDS011;15664;51.302;7.744;2023-04-24T05:44:00;12.33;;;3.50;;
28431;SDS011;15664;51.302;7.744;2023-04-24T05:46:25;9.40;;;3.65;;
28431;SDS011;15664;51.302;7.744;2023-04-24T05:48:51;9.23;;;3.73;;
28431;SDS011;15664;51.302;7.744;2023-04-24T05:51:17;9.85;;;4.47;;
28431;SDS011;15664;51.302;7.744;2023-04-24T05:53:42;5.97;;;3.15;;
28431;SDS011;15664;51.302;7.744;2023-04-24T05:56:09;6.70;;;3.25;;
28431;SDS011;15664;51.302;7.744;2023-04-24T05:58:35;6.33;;;2.47;;
28431;SDS011;15664;51.302;7.744;2023-04-24T06:01:00;10.37;;;4.13;;
28431;SDS011;15664;51.302;7.744;2023-04-24T06:03:27;7.13;;;2.60;;
28431;SDS011;15664;51.302;7.744;2023-04-24T06:05:52;7.00;;;2.70;;
28431;SDS011;15664;51.302;7.744;2023-04-24T06:08:19;6.10;;;2.15;;
28431;SDS011;15664;51.302;7.744;2023-04-24T06:10:46;9.85;;;4.03;;
28431;SDS011;15664;51.302;7.744;2023-04-24T06:13:12;8.97;;;3.93;;
28431;SDS011;15664;51.302;7.744;2023-04-24T06:15:43;9.55;;;3.72;;
28431;SDS011;15664;51.302;7.744;2023-04-24T06:18:14;8.45;;;3.25;;
28431;SDS011;15664;51.302;7.744;2023-04-24T06:20:41;7.90;;;3.45;;
28431;SDS011;15664;51.302;7.744;2023-04-24T06:23:08;7.55;;;2.75;;
28431;SDS011;15664;51.302;7.744;2023-04-24T06:25:33;5.70;;;2.60;;
28431;SDS011;15664;51.302;7.744;2023-04-24T06:27:59;7.73;;;3.30;;
28431;SDS011;15664;51.302;7.744;2023-04-24T06:30:24;7.90;;;3.77;;
28431;SDS011;15664;51.302;7.744;2023-04-24T06:32:50;7.03;;;3.57;;
28431;SDS011;15664;51.302;7.744;2023-04-24T06:35:16;9.98;;;3.55;;
28431;SDS011;15664;51.302;7.744;2023-04-24T06:37:42;9.07;;;3.60;;
28431;SDS011;15664;51.302;7.744;2023-04-24T06:40:08;9.32;;;3.28;;
28431;SDS011;15664;51.302;7.744;2023-04-24T06:42:33;8.45;;;4.07;;
28431;SDS011;15664;51.302;7.744;2023-04-24T06:45:02;9.57;;;3.63;;
28431;SDS011;15664;51.302;7.744;2023-04-24T06:47:28;9.73;;;4.78;;
28431;SDS011;15664;51.302;7.744;2023-04-24T06:49:53;7.37;;;3.20;;
28431;SDS011;15664;51.302;7.744;2023-04-24T06:52:20;8.07;;;2.95;;
28431;SDS011;15664;51.302;7.744;2023-04-24T06:54:45;8.23;;;3.43;;
28431;SDS011;15664;51.302;7.744;2023-04-24T06:57:11;5.83;;;2.83;;
28431;SDS011;15664;51.302;7.744;2023-04-24T06:59:37;6.75;;;2.85;;
28431;SDS011;15664;51.302;7.744;2023-04-24T07:02:02;10.73;;;3.67;;
28431;SDS011;15664;51.302;7.744;2023-04-24T07:04:28;9.10;;;3.63;;
28431;SDS011;15664;51.302;7.744;2023-04-24T07:06:53;9.82;;;3.90;;
28431;SDS011;15664;51.302;7.744;2023-04-24T07:09:23;8.07;;;3.58;;
28431;SDS011;15664;51.302;7.744;2023-04-24T07:11:49;11.38;;;4.05;;
28431;SDS011;15664;51.302;7.744;2023-04-24T07:14:14;4.70;;;2.37;;
28431;SDS011;15664;51.302;7.744;2023-04-24T07:16:40;7.88;;;3.28;;
28431;SDS011;15664;51.302;7.744;2023-04-24T07:19:05;8.83;;;3.17;;
28431;SDS011;15664;51.302;7.744;2023-04-24T07:21:31;9.47;;;3.93;;
28431;SDS011;15664;51.302;7.744;2023-04-24T07:23:57;5.50;;;2.63;;
28431;SDS011;15664;51.302;7.744;2023-04-24T07:26:22;8.40;;;2.88;;
28431;SDS011;15664;51.302;7.744;2023-04-24T07:28:47;9.70;;;3.57;;
28431;SDS011;15664;51.302;7.744;2023-04-24T07:31:13;6.60;;;2.80;;
28431;SDS011;15664;51.302;7.744;2023-04-24T07:33:38;5.03;;;2.67;;
28431;SDS011;15664;51.302;7.744;2023-04-24T07:36:04;8.60;;;3.33;;
28431;SDS011;15664;51.302;7.744;2023-04-24T07:38:29;7.27;;;2.93;;
28431;SDS011;15664;51.302;7.744;2023-04-24T07:40:55;14.37;;;3.33;;
28431;SDS011;15664;51.302;7.744;2023-04-24T07:43:21;6.07;;;2.55;;
28431;SDS011;15664;51.302;7.744;2023-04-24T07:45:46;8.77;;;3.50;;
28431;SDS011;15664;51.302;7.744;2023-04-24T07:48:12;5.07;;;2.50;;
28431;SDS011;15664;51.302;7.744;2023-04-24T07:50:39;5.43;;;2.80;;
28431;SDS011;15664;51.302;7.744;2023-04-24T07:53:05;5.82;;;2.63;;
28431;SDS011;15664;51.302;7.744;2023-04-24T07:55:31;5.82;;;2.65;;
28431;SDS011;15664;51.302;7.744;2023-04-24T07:57:56;3.73;;;1.80;;
28431;SDS011;15664;51.302;7.744;2023-04-24T08:00:22;4.70;;;2.60;;
28431;SDS011;15664;51.302;7.744;2023-04-24T08:02:47;5.90;;;2.17;;
28431;SDS011;15664;51.302;7.744;2023-04-24T08:05:13;4.63;;;1.80;;
28431;SDS011;15664;51.302;7.744;2023-04-24T08:07:38;3.40;;;1.93;;
28431;SDS011;15664;51.302;7.744;2023-04-24T08:10:04;4.67;;;2.30;;
28431;SDS011;15664;51.302;7.744;2023-04-24T08:12:30;3.05;;;1.65;;
28431;SDS011;15664;51.302;7.744;2023-04-24T08:14:55;3.67;;;1.67;;
28431;SDS011;15664;51.302;7.744;2023-04-24T08:17:21;3.97;;;1.90;;
28431;SDS011;15664;51.302;7.744;2023-04-24T08:19:46;2.35;;;1.65;;
28431;SDS011;15664;51.302;7.744;2023-04-24T08:22:16;2.60;;;1.45;;
28431;SDS011;15664;51.302;7.744;2023-04-24T08:24:42;1.70;;;1.00;;
28431;SDS011;15664;51.302;7.744;2023-04-24T08:27:08;2.07;;;1.20;;
28431;SDS011;15664;51.302;7.744;2023-04-24T08:29:33;3.22;;;1.50;;
28431;SDS011;15664;51.302;7.744;2023-04-24T08:31:59;1.73;;;1.20;;
28431;SDS011;15664;51.302;7.744;2023-04-24T08:34:24;2.22;;;1.10;;
28431;SDS011;15664;51.302;7.744;2023-04-24T08:36:50;3.40;;;1.80;;
28431;SDS011;15664;51.302;7.744;2023-04-24T08:39:15;2.13;;;1.10;;
28431;SDS011;15664;51.302;7.744;2023-04-24T08:41:43;1.73;;;1.15;;
28431;SDS011;15664;51.302;7.744;2023-04-24T08:44:08;1.77;;;1.33;;
28431;SDS011;15664;51.302;7.744;2023-04-24T08:46:34;2.63;;;1.43;;
28431;SDS011;15664;51.302;7.744;2023-04-24T08:49:00;1.52;;;0.90;;
28431;SDS011;15664;51.302;7.744;2023-04-24T08:51:26;1.77;;;1.05;;
28431;SDS011;15664;51.302;7.744;2023-04-24T08:53:52;1.77;;;1.07;;
28431;SDS011;15664;51.302;7.744;2023-04-24T08:56:18;1.10;;;0.80;;
28431;SDS011;15664;51.302;7.744;2023-04-24T08:58:44;1.37;;;0.90;;
28431;SDS011;15664;51.302;7.744;2023-04-24T09:01:09;1.17;;;0.80;;
28431;SDS011;15664;51.302;7.744;2023-04-24T09:03:35;1.13;;;0.93;;
28431;SDS011;15664;51.302;7.744;2023-04-24T09:06:01;1.33;;;1.02;;
28431;SDS011;15664;51.302;7.744;2023-04-24T09:08:27;2.58;;;1.08;;
28431;SDS011;15664;51.302;7.744;2023-04-24T09:10:53;1.43;;;1.20;;
28431;SDS011;15664;51.302;7.744;2023-04-24T09:13:19;1.30;;;0.90;;
28431;SDS011;15664;51.302;7.744;2023-04-24T09:15:45;1.30;;;0.98;;
28431;SDS011;15664;51.302;7.744;2023-04-24T09:18:11;2.10;;;1.20;;
28431;SDS011;15664;51.302;7.744;2023-04-24T09:20:56;13.17;;;11.70;;
28431;SDS011;15664;51.302;7.744;2023-04-24T09:23:22;18.30;;;16.77;;
28431;SDS011;15664;51.302;7.744;2023-04-24T09:25:48;20.70;;;18.93;;
28431;SDS011;15664;51.302;7.744;2023-04-24T09:28:18;15.60;;;14.20;;
28431;SDS011;15664;51.302;7.744;2023-04-24T09:30:44;22.20;;;20.30;;
28431;SDS011;15664;51.302;7.744;2023-04-24T09:33:10;20.40;;;18.53;;
28431;SDS011;15664;51.302;7.744;2023-04-24T09:35:36;19.55;;;17.77;;
28431;SDS011;15664;51.302;7.744;2023-04-24T09:38:01;21.60;;;19.73;;
28431;SDS011;15664;51.302;7.744;2023-04-24T09:40:27;22.92;;;20.55;;
28431;SDS011;15664;51.302;7.744;2023-04-24T09:42:53;23.93;;;21.70;;
28431;SDS011;15664;51.302;7.744;2023-04-24T09:45:19;23.88;;;18.25;;
28431;SDS011;15664;51.302;7.744;2023-04-24T09:47:45;24.70;;;22.43;;
28431;SDS011;15664;51.302;7.744;2023-04-24T09:50:14;30.92;;;27.83;;
28431;SDS011;15664;51.302;7.744;2023-04-24T09:52:43;33.23;;;29.63;;
28431;SDS011;15664;51.302;7.744;2023-04-24T09:55:19;33.03;;;29.52;;
28431;SDS011;15664;51.302;7.744;2023-04-24T09:57:55;35.70;;;31.77;;
28431;SDS011;15664;51.302;7.744;2023-04-24T10:00:24;36.33;;;32.30;;
28431;SDS011;15664;51.302;7.744;2023-04-24T10:02:51;32.88;;;29.50;;
28431;SDS011;15664;51.302;7.744;2023-04-24T10:05:17;37.70;;;32.70;;
28431;SDS011;15664;51.302;7.744;2023-04-24T10:07:43;22.15;;;20.17;;
28431;SDS011;15664;51.302;7.744;2023-04-24T10:10:08;14.00;;;12.63;;
28431;SDS011;15664;51.302;7.744;2023-04-24T10:12:34;15.80;;;14.40;;
28431;SDS011;15664;51.302;7.744;2023-04-24T10:14:59;12.33;;;11.20;;
28431;SDS011;15664;51.302;7.744;2023-04-24T10:17:26;13.10;;;11.85;;
28431;SDS011;15664;51.302;7.744;2023-04-24T10:19:53;12.35;;;11.18;;
28431;SDS011;15664;51.302;7.744;2023-04-24T10:22:19;9.60;;;8.53;;
28431;SDS011;15664;51.302;7.744;2023-04-24T10:24:46;13.15;;;11.95;;
28431;SDS011;15664;51.302;7.744;2023-04-24T10:27:12;16.35;;;14.88;;
28431;SDS011;15664;51.302;7.744;2023-04-24T10:29:40;17.10;;;15.55;;
28431;SDS011;15664;51.302;7.744;2023-04-24T10:32:06;20.03;;;18.30;;
28431;SDS011;15664;51.302;7.744;2023-04-24T10:34:31;22.52;;;20.45;;
28431;SDS011;15664;51.302;7.744;2023-04-24T10:36:57;19.37;;;17.63;;
28431;SDS011;15664;51.302;7.744;2023-04-24T10:39:23;25.63;;;23.17;;
28431;SDS011;15664;51.302;7.744;2023-04-24T10:41:49;26.30;;;23.88;;
28431;SDS011;15664;51.302;7.744;2023-04-24T10:44:15;27.90;;;25.30;;
28431;SDS011;15664;51.302;7.744;2023-04-24T10:46:44;29.90;;;26.88;;
28431;SDS011;15664;51.302;7.744;2023-04-24T10:49:10;29.37;;;26.50;;
28431;SDS011;15664;51.302;7.744;2023-04-24T10:51:45;30.95;;;27.90;;
28431;SDS011;15664;51.302;7.744;2023-04-24T10:56:52;38.20;;;33.57;;
28431;SDS011;15664;51.302;7.744;2023-04-24T10:59:25;44.42;;;36.08;;
28431;SDS011;15664;51.302;7.744;2023-04-24T11:01:53;50.45;;;38.78;;
28431;SDS011;15664;51.302;7.744;2023-04-24T11:04:30;16.52;;;14.95;;
28431;SDS011;15664;51.302;7.744;2023-04-24T11:06:56;7.03;;;5.20;;
28431;SDS011;15664;51.302;7.744;2023-04-24T11:09:22;7.90;;;3.73;;
28431;SDS011;15664;51.302;7.744;2023-04-24T11:11:51;5.65;;;3.22;;
28431;SDS011;15664;51.302;7.744;2023-04-24T11:14:27;5.22;;;2.22;;
28431;SDS011;15664;51.302;7.744;2023-04-24T11:16:53;6.33;;;3.10;;
28431;SDS011;15664;51.302;7.744;2023-04-24T11:19:25;6.03;;;2.58;;
28431;SDS011;15664;51.302;7.744;2023-04-24T11:21:58;7.03;;;2.80;;
28431;SDS011;15664;51.302;7.744;2023-04-24T11:26:53;6.67;;;3.03;;
28431;SDS011;15664;51.302;7.744;2023-04-24T11:29:19;8.10;;;2.75;;
28431;SDS011;15664;51.302;7.744;2023-04-24T11:31:46;5.97;;;2.93;;
28431;SDS011;15664;51.302;7.744;2023-04-24T11:34:17;7.50;;;3.10;;
28431;SDS011;15664;51.302;7.744;2023-04-24T11:36:44;8.82;;;3.30;;
28431;SDS011;15664;51.302;7.744;2023-04-24T11:39:10;6.55;;;3.10;;
28431;SDS011;15664;51.302;7.744;2023-04-24T11:41:36;6.80;;;2.58;;
28431;SDS011;15664;51.302;7.744;2023-04-24T11:44:02;5.07;;;2.40;;
28431;SDS011;15664;51.302;7.744;2023-04-24T11:46:29;8.77;;;3.40;;
28431;SDS011;15664;51.302;7.744;2023-04-24T11:48:55;11.10;;;3.20;;
28431;SDS011;15664;51.302;7.744;2023-04-24T11:51:21;9.10;;;3.47;;
28431;SDS011;15664;51.302;7.744;2023-04-24T11:53:47;5.82;;;2.45;;
28431;SDS011;15664;51.302;7.744;2023-04-24T11:56:16;8.93;;;3.28;;
28431;SDS011;15664;51.302;7.744;2023-04-24T11:58:42;10.35;;;3.25;;
28431;SDS011;15664;51.302;7.744;2023-04-24T12:01:08;19.63;;;4.17;;
28431;SDS011;15664;51.302;7.744;2023-04-24T12:03:33;10.77;;;3.77;;
28431;SDS011;15664;51.302;7.744;2023-04-24T12:06:31;5.13;;;2.63;;
28431;SDS011;15664;51.302;7.744;2023-04-24T12:08:52;8.27;;;2.72;;
28431;SDS011;15664;51.302;7.744;2023-04-24T12:11:17;10.00;;;3.87;;
28431;SDS011;15664;51.302;7.744;2023-04-24T12:13:43;10.95;;;4.15;;
28431;SDS011;15664;51.302;7.744;2023-04-24T12:16:08;11.07;;;3.93;;
28431;SDS011;15664;51.302;7.744;2023-04-24T12:18:34;10.03;;;3.77;;
28431;SDS011;15664;51.302;7.744;2023-04-24T12:21:19;11.10;;;4.72;;
28431;SDS011;15664;51.302;7.744;2023-04-24T12:23:44;11.07;;;4.00;;
28431;SDS011;15664;51.302;7.744;2023-04-24T12:26:11;11.52;;;4.38;;
28431;SDS011;15664;51.302;7.744;2023-04-24T12:28:37;8.98;;;2.95;;
28431;SDS011;15664;51.302;7.744;2023-04-24T12:31:03;9.85;;;4.40;;
28431;SDS011;15664;51.302;7.744;2023-04-24T12:33:32;8.77;;;3.83;;
28431;SDS011;15664;51.302;7.744;2023-04-24T12:35:58;13.48;;;4.07;;
28431;SDS011;15664;51.302;7.744;2023-04-24T12:38:24;9.30;;;3.50;;
28431;SDS011;15664;51.302;7.744;2023-04-24T12:41:04;5.88;;;2.47;;
28431;SDS011;15664;51.302;7.744;2023-04-24T12:43:29;7.78;;;3.17;;
28431;SDS011;15664;51.302;7.744;2023-04-24T12:45:55;8.03;;;3.10;;
28431;SDS011;15664;51.302;7.744;2023-04-24T12:48:20;8.03;;;3.07;;
28431;SDS011;15664;51.302;7.744;2023-04-24T12:50:47;6.85;;;2.63;;
28431;SDS011;15664;51.302;7.744;2023-04-24T12:53:13;8.77;;;2.70;;
28431;SDS011;15664;51.302;7.744;2023-04-24T12:55:38;10.18;;;3.00;;
28431;SDS011;15664;51.302;7.744;2023-04-24T12:58:04;4.53;;;2.27;;
28431;SDS011;15664;51.302;7.744;2023-04-24T13:00:29;6.90;;;3.03;;
28431;SDS011;15664;51.302;7.744;2023-04-24T13:02:54;9.10;;;3.13;;
28431;SDS011;15664;51.302;7.744;2023-04-24T13:05:20;7.70;;;2.43;;
28431;SDS011;15664;51.302;7.744;2023-04-24T13:07:45;7.83;;;3.40;;
28431;SDS011;15664;51.302;7.744;2023-04-24T13:10:10;11.33;;;2.80;;
28431;SDS011;15664;51.302;7.744;2023-04-24T13:12:36;6.17;;;2.40;;
28431;SDS011;15664;51.302;7.744;2023-04-24T13:15:01;7.35;;;2.45;;
28431;SDS011;15664;51.302;7.744;2023-04-24T13:17:27;8.37;;;3.00;;
28431;SDS011;15664;51.302;7.744;2023-04-24T13:19:53;8.53;;;2.63;;
28431;SDS011;15664;51.302;7.744;2023-04-24T13:22:19;7.47;;;2.90;;
28431;SDS011;15664;51.302;7.744;2023-04-24T13:24:45;8.05;;;3.20;;
28431;SDS011;15664;51.302;7.744;2023-04-24T13:27:10;5.53;;;2.40;;
28431;SDS011;15664;51.302;7.744;2023-04-24T13:29:36;12.57;;;3.13;;
28431;SDS011;15664;51.302;7.744;2023-04-24T13:32:01;10.07;;;2.57;;
28431;SDS011;15664;51.302;7.744;2023-04-24T13:34:27;8.33;;;2.70;;
28431;SDS011;15664;51.302;7.744;2023-04-24T13:36:54;5.63;;;2.35;;
28431;SDS011;15664;51.302;7.744;2023-04-24T13:39:20;8.10;;;2.78;;
28431;SDS011;15664;51.302;7.744;2023-04-24T13:41:46;5.85;;;2.08;;
28431;SDS011;15664;51.302;7.744;2023-04-24T13:44:13;6.47;;;2.43;;
28431;SDS011;15664;51.302;7.744;2023-04-24T13:46:39;7.05;;;2.42;;
28431;SDS011;15664;51.302;7.744;2023-04-24T13:49:04;6.97;;;2.33;;
28431;SDS011;15664;51.302;7.744;2023-04-24T13:51:29;8.47;;;3.17;;
28431;SDS011;15664;51.302;7.744;2023-04-24T13:53:55;5.05;;;2.00;;
28431;SDS011;15664;51.302;7.744;2023-04-24T13:56:20;5.27;;;1.90;;
28431;SDS011;15664;51.302;7.744;2023-04-24T13:58:46;4.30;;;1.80;;
28431;SDS011;15664;51.302;7.744;2023-04-24T14:01:12;7.70;;;2.70;;
28431;SDS011;15664;51.302;7.744;2023-04-24T14:03:37;4.68;;;1.70;;
28431;SDS011;15664;51.302;7.744;2023-04-24T14:06:03;5.97;;;2.40;;
28431;SDS011;15664;51.302;7.744;2023-04-24T14:08:28;7.30;;;3.10;;
28431;SDS011;15664;51.302;7.744;2023-04-24T14:10:53;8.10;;;2.37;;
28431;SDS011;15664;51.302;7.744;2023-04-24T14:13:18;9.00;;;2.70;;
28431;SDS011;15664;51.302;7.744;2023-04-24T14:15:44;5.83;;;2.43;;
28431;SDS011;15664;51.302;7.744;2023-04-24T14:18:09;7.03;;;2.10;;
28431;SDS011;15664;51.302;7.744;2023-04-24T14:20:34;7.37;;;2.90;;
28431;SDS011;15664;51.302;7.744;2023-04-24T14:23:00;8.63;;;2.60;;
28431;SDS011;15664;51.302;7.744;2023-04-24T14:25:26;5.00;;;2.13;;
28431;SDS011;15664;51.302;7.744;2023-04-24T14:27:51;5.20;;;2.13;;
28431;SDS011;15664;51.302;7.744;2023-04-24T14:30:17;4.20;;;1.50;;
28431;SDS011;15664;51.302;7.744;2023-04-24T14:32:42;5.93;;;2.10;;
28431;SDS011;15664;51.302;7.744;2023-04-24T14:35:08;6.83;;;2.60;;
28431;SDS011;15664;51.302;7.744;2023-04-24T14:37:33;4.20;;;1.77;;
28431;SDS011;15664;51.302;7.744;2023-04-24T14:39:58;6.87;;;2.20;;
28431;SDS011;15664;51.302;7.744;2023-04-24T14:42:24;8.87;;;2.20;;
28431;SDS011;15664;51.302;7.744;2023-04-24T14:44:49;5.15;;;2.03;;